Augusta, Indiana
Current Conditions -  °F | °C
As of 5:35 PM on Monday 20 Oct 2014 (Local Time) from KHNB Reporting Station
Few Clouds Few Clouds  
Wind Chill: 66°   Ceiling: Unl
Heat Index: 66°   Visibility: 10mi
Dew Point: 54°   Wind: 8mph
Humidity: 64%   Direction: 280°W
Pressure: 29.9"   Gusts: NA
Location:  38.3488°N, 87.2217°W
Report Text: KHNB 202235Z AUTO 28007KT 10SM FEW065 19/12 A2990 RMK AO1
Loading
Personal Weather Stations






























Interactive Weather Map New forecast layout! Learn more

10-Day Weather Forecast

Advertisements
Track Severe Weather on mobile